Ledoux, New Mexico
Current Conditions -  °F | °C
As of 5:15 PM on Sunday 23 Nov 2014 (Local Time) from KAXX Reporting Station
Moderate Snow Moderate Snow  
Wind Chill: 24°   Ceiling: 300
Heat Index: 24°   Visibility: 1mi
Dew Point: 21°   Wind: 0mph
Humidity: 88%   Direction: NA
Pressure: 29.87"   Gusts: NA
Location:  36.0379°N, 105.295°W
Report Text: KAXX 240015Z AUTO 00000KT 1SM SN OVC003 M04/M06 A2987 RMK AO2 T10441061
Loading
Personal Weather Stations






























Interactive Weather Map New forecast layout! Learn more

10-Day Weather Forecast

Advertisements
Track Severe Weather on mobile